Maersk Detector — XJAT — position and weather

sailwx.info

Track history (hours):
 
Tides and Currents Weather Stations Pressure Air Temp Water Temp Dewpoint Dewpoint Depression Visibility Wind Speed Wind Dir Waves Ship Positions

Maersk Detector

Last reported at 2018-Aug-16 08:35 UTC. Time now 2018-Aug-21 03:54 UTC.
Position N 47°24' W 052°16'.

Length 90 m; draft 6.5 m.

Type: Tug. MMSI: 316013360.

Date/timePositionNaut miles runAvg speedWind from/ knotsBaromVisibWave heightAir tempDewpointWater temp
2018-Aug-16 08:35N 47°24' W 052°16'311.7
2018-Aug-16 08:17N 47°22' W 052°21'412.0
2018-Aug-16 07:59N 47°21' W 052°26'612.3
2018-Aug-16 07:27N 47°20' W 052°35'87 3.4
2018-Aug-15 06:14N 47°31' W 050°28'1011.6
2018-Aug-15 05:20N 47°32' W 050°13'411.7
2018-Aug-15 04:59N 47°33' W 050°07'611.7
2018-Aug-15 04:29N 47°33' W 049°58'611.7
2018-Aug-15 03:58N 47°34' W 049°50'712.0
2018-Aug-15 03:24N 47°35' W 049°40'512.4
2018-Aug-15 02:58N 47°36' W 049°32'712.4
2018-Aug-15 02:24N 47°37' W 049°21'  
2018-Aug-10 02:00N 47°43' W 051°51'611.5
2018-Aug-10 01:28N 47°43' W 052°01'611.2
2018-Aug-10 00:56N 47°43' W 052°09'1 1.7
2018-Aug-10 00:30N 47°42' W 052°10'0 0.0
2018-Aug-09 23:59N 47°42' W 052°10'0 0.0
2018-Aug-09 23:29N 47°42' W 052°10'6 0.4
2018-Aug-09 07:49N 47°36' W 052°08'0 0.0
2018-Aug-09 06:37N 47°36' W 052°08'0 0.0
2018-Aug-09 06:26N 47°36' W 052°08'0 0.0
2018-Aug-09 05:57N 47°36' W 052°08'0 0.0
2018-Aug-09 05:26N 47°36' W 052°08'0 0.0
2018-Aug-09 05:00N 47°36' W 052°08'0 0.0
2018-Aug-09 04:29N 47°36' W 052°08'0 0.0
2018-Aug-09 03:58N 47°36' W 052°08'0 0.0
2018-Aug-09 03:27N 47°36' W 052°08'0 0.0
2018-Aug-09 02:57N 47°36' W 052°08'0 0.0
2018-Aug-09 02:30N 47°36' W 052°08'0 0.0
2018-Aug-09 00:12N 47°36' W 052°08'0 0.1
2018-Aug-09 00:00N 47°36' W 052°08'8 1.6
2018-Aug-08 18:36N 47°35' W 052°20'111.4
2018-Aug-08 18:30N 47°35' W 052°22'611.4
2018-Aug-08 17:59N 47°35' W 052°31'611.6
2018-Aug-08 17:29N 47°34' W 052°39'2 3.2
2018-Aug-08 16:50N 47°34' W 052°42'0 0.0
2018-Aug-08 13:29N 47°34' W 052°42'0 0.0
2018-Aug-08 10:38N 47°34' W 052°42'0 0.0
2018-Aug-08 10:20N 47°34' W 052°42'0 0.0
2018-Aug-08 09:56N 47°34' W 052°42'0 0.0
2018-Aug-08 09:26N 47°34' W 052°42'0 0.0
2018-Aug-08 08:56N 47°34' W 052°42'0 0.0
2018-Aug-08 08:26N 47°34' W 052°42'0 0.0
2018-Aug-08 07:56N 47°34' W 052°42'0 0.0
2018-Aug-08 07:29N 47°34' W 052°42'0 0.0
2018-Aug-08 06:56N 47°34' W 052°42'0 0.0
2018-Aug-08 06:26N 47°34' W 052°42'0 0.0
2018-Aug-08 05:59N 47°34' W 052°42'0 0.0
2018-Aug-08 05:26N 47°34' W 052°42'0 0.0
2018-Aug-08 04:56N 47°34' W 052°42'0 0.0
2018-Aug-08 04:26N 47°34' W 052°42'0 0.0
2018-Aug-08 03:56N 47°34' W 052°42'0 0.0
2018-Aug-08 03:29N 47°34' W 052°42'0 0.0
2018-Aug-08 02:56N 47°34' W 052°42'0 0.0
2018-Aug-08 02:26N 47°34' W 052°42'0 0.0
2018-Aug-08 01:59N 47°34' W 052°42'0 0.0
2018-Aug-08 01:29N 47°34' W 052°42'0 0.0
2018-Aug-08 00:56N 47°34' W 052°42'0 0.0
2018-Aug-08 00:26N 47°34' W 052°42'0 0.0
2018-Aug-07 23:56N 47°34' W 052°42'0 0.0
2018-Aug-07 23:20N 47°34' W 052°42'0 0.0
2018-Aug-07 22:50N 47°34' W 052°42'0 0.0
2018-Aug-07 22:26N 47°34' W 052°42'0 0.0
2018-Aug-07 21:50N 47°34' W 052°42'0 0.0
2018-Aug-07 21:20N 47°34' W 052°42'0 0.0
2018-Aug-07 20:44N 47°34' W 052°42'0 0.0
2018-Aug-07 20:14N 47°34' W 052°42'0 0.0
2018-Aug-07 19:56N 47°34' W 052°42'0 0.0
2018-Aug-07 19:26N 47°34' W 052°42'0 0.0
2018-Aug-07 18:47N 47°34' W 052°42'0 0.0
2018-Aug-07 18:23N 47°34' W 052°42'0 0.0
2018-Aug-07 17:56N 47°34' W 052°42'0 0.0
2018-Aug-07 17:26N 47°34' W 052°42'0 0.0
2018-Aug-07 16:56N 47°34' W 052°42'0 0.0
2018-Aug-07 16:23N 47°34' W 052°42'0 0.0
2018-Aug-07 15:38N 47°34' W 052°42'0 0.0
2018-Aug-07 15:20N 47°34' W 052°42'0 0.0
2018-Aug-07 14:44N 47°34' W 052°42'0 0.0
2018-Aug-07 14:14N 47°34' W 052°42'0 0.0
2018-Aug-07 13:56N 47°34' W 052°42'0 0.0
2018-Aug-07 13:29N 47°34' W 052°42'0 0.0
2018-Aug-07 12:56N 47°34' W 052°42'0 0.0
2018-Aug-07 10:08N 47°34' W 052°42'0 0.0
2018-Aug-07 09:50N 47°34' W 052°42'0 0.9
2018-Aug-07 09:28N 47°34' W 052°42'0 0.0
2018-Aug-07 08:55N 47°34' W 052°42'0 0.0
2018-Aug-07 08:25N 47°34' W 052°42'0 0.0
2018-Aug-07 07:55N 47°34' W 052°42'0 0.0
2018-Aug-07 07:25N 47°34' W 052°42'0 0.0
2018-Aug-07 06:58N 47°34' W 052°42'0 0.0
2018-Aug-07 06:28N 47°34' W 052°42'0 0.0
2018-Aug-07 05:55N 47°34' W 052°42'0 0.0
2018-Aug-07 05:25N 47°34' W 052°42'0 0.0
2018-Aug-07 04:55N 47°34' W 052°42'0 0.0
2018-Aug-07 04:25N 47°34' W 052°42'0 0.0
2018-Aug-07 03:55N 47°34' W 052°42'0 0.0
2018-Aug-07 03:25N 47°34' W 052°42'0 0.0
2018-Aug-07 02:55N 47°34' W 052°42'0 0.0
2018-Aug-07 02:25N 47°34' W 052°42'0 0.0
2018-Aug-07 01:55N 47°34' W 052°42'0 0.0
2018-Aug-07 01:25N 47°34' W 052°42'0 0.0
2018-Aug-07 00:52N 47°34' W 052°42'0 0.0
2018-Aug-07 00:21N 47°34' W 052°42'0 0.0
2018-Aug-06 23:56N 47°34' W 052°42'2 3.3
2018-Aug-06 23:25N 47°34' W 052°39'410.2
2018-Aug-06 22:59N 47°31' W 052°34'  
Track history (hours):
 
Tides and Currents Weather Stations Pressure Air Temp Water Temp Dewpoint Dewpoint Depression Visibility Wind Speed Wind Dir Waves Ship Positions

Maersk Detector

Last reported at 2018-Aug-16 08:35 UTC. Time now 2018-Aug-21 03:54 UTC.
Position N 47°24' W 052°16'.

Length 90 m; draft 6.5 m.

Type: Tug. MMSI: 316013360.

Date/timePositionNaut miles runAvg speedWind from/ knotsBaromVisibWave heightAir tempDewpointWater temp
2018-Aug-16 08:35N 47°24' W 052°16'311.7
2018-Aug-16 08:17N 47°22' W 052°21'412.0
2018-Aug-16 07:59N 47°21' W 052°26'612.3
2018-Aug-16 07:27N 47°20' W 052°35'87 3.4
2018-Aug-15 06:14N 47°31' W 050°28'1011.6
2018-Aug-15 05:20N 47°32' W 050°13'411.7
2018-Aug-15 04:59N 47°33' W 050°07'611.7
2018-Aug-15 04:29N 47°33' W 049°58'611.7
2018-Aug-15 03:58N 47°34' W 049°50'712.0
2018-Aug-15 03:24N 47°35' W 049°40'512.4
2018-Aug-15 02:58N 47°36' W 049°32'712.4
2018-Aug-15 02:24N 47°37' W 049°21'  
2018-Aug-10 02:00N 47°43' W 051°51'611.5
2018-Aug-10 01:28N 47°43' W 052°01'611.2
2018-Aug-10 00:56N 47°43' W 052°09'1 1.7
2018-Aug-10 00:30N 47°42' W 052°10'0 0.0
2018-Aug-09 23:59N 47°42' W 052°10'0 0.0
2018-Aug-09 23:29N 47°42' W 052°10'6 0.4
2018-Aug-09 07:49N 47°36' W 052°08'0 0.0
2018-Aug-09 06:37N 47°36' W 052°08'0 0.0
2018-Aug-09 06:26N 47°36' W 052°08'0 0.0
2018-Aug-09 05:57N 47°36' W 052°08'0 0.0
2018-Aug-09 05:26N 47°36' W 052°08'0 0.0
2018-Aug-09 05:00N 47°36' W 052°08'0 0.0
2018-Aug-09 04:29N 47°36' W 052°08'0 0.0
2018-Aug-09 03:58N 47°36' W 052°08'0 0.0
2018-Aug-09 03:27N 47°36' W 052°08'0 0.0
2018-Aug-09 02:57N 47°36' W 052°08'0 0.0
2018-Aug-09 02:30N 47°36' W 052°08'0 0.0
2018-Aug-09 00:12N 47°36' W 052°08'0 0.1
2018-Aug-09 00:00N 47°36' W 052°08'8 1.6
2018-Aug-08 18:36N 47°35' W 052°20'111.4
2018-Aug-08 18:30N 47°35' W 052°22'611.4
2018-Aug-08 17:59N 47°35' W 052°31'611.6
2018-Aug-08 17:29N 47°34' W 052°39'2 3.2
2018-Aug-08 16:50N 47°34' W 052°42'0 0.0
2018-Aug-08 13:29N 47°34' W 052°42'0 0.0
2018-Aug-08 10:38N 47°34' W 052°42'0 0.0
2018-Aug-08 10:20N 47°34' W 052°42'0 0.0
2018-Aug-08 09:56N 47°34' W 052°42'0 0.0
2018-Aug-08 09:26N 47°34' W 052°42'0 0.0
2018-Aug-08 08:56N 47°34' W 052°42'0 0.0
2018-Aug-08 08:26N 47°34' W 052°42'0 0.0
2018-Aug-08 07:56N 47°34' W 052°42'0 0.0
2018-Aug-08 07:29N 47°34' W 052°42'0 0.0
2018-Aug-08 06:56N 47°34' W 052°42'0 0.0
2018-Aug-08 06:26N 47°34' W 052°42'0 0.0
2018-Aug-08 05:59N 47°34' W 052°42'0 0.0
2018-Aug-08 05:26N 47°34' W 052°42'0 0.0
2018-Aug-08 04:56N 47°34' W 052°42'0 0.0
2018-Aug-08 04:26N 47°34' W 052°42'0 0.0
2018-Aug-08 03:56N 47°34' W 052°42'0 0.0
2018-Aug-08 03:29N 47°34' W 052°42'0 0.0
2018-Aug-08 02:56N 47°34' W 052°42'0 0.0
2018-Aug-08 02:26N 47°34' W 052°42'0 0.0
2018-Aug-08 01:59N 47°34' W 052°42'0 0.0
2018-Aug-08 01:29N 47°34' W 052°42'0 0.0
2018-Aug-08 00:56N 47°34' W 052°42'0 0.0
2018-Aug-08 00:26N 47°34' W 052°42'0 0.0
2018-Aug-07 23:56N 47°34' W 052°42'0 0.0
2018-Aug-07 23:20N 47°34' W 052°42'0 0.0
2018-Aug-07 22:50N 47°34' W 052°42'0 0.0
2018-Aug-07 22:26N 47°34' W 052°42'0 0.0
2018-Aug-07 21:50N 47°34' W 052°42'0 0.0
2018-Aug-07 21:20N 47°34' W 052°42'0 0.0
2018-Aug-07 20:44N 47°34' W 052°42'0 0.0
2018-Aug-07 20:14N 47°34' W 052°42'0 0.0
2018-Aug-07 19:56N 47°34' W 052°42'0 0.0
2018-Aug-07 19:26N 47°34' W 052°42'0 0.0
2018-Aug-07 18:47N 47°34' W 052°42'0 0.0
2018-Aug-07 18:23N 47°34' W 052°42'0 0.0
2018-Aug-07 17:56N 47°34' W 052°42'0 0.0
2018-Aug-07 17:26N 47°34' W 052°42'0 0.0
2018-Aug-07 16:56N 47°34' W 052°42'0 0.0
2018-Aug-07 16:23N 47°34' W 052°42'0 0.0
2018-Aug-07 15:38N 47°34' W 052°42'0 0.0
2018-Aug-07 15:20N 47°34' W 052°42'0 0.0
2018-Aug-07 14:44N 47°34' W 052°42'0 0.0
2018-Aug-07 14:14N 47°34' W 052°42'0 0.0
2018-Aug-07 13:56N 47°34' W 052°42'0 0.0
2018-Aug-07 13:29N 47°34' W 052°42'0 0.0
2018-Aug-07 12:56N 47°34' W 052°42'0 0.0
2018-Aug-07 10:08N 47°34' W 052°42'0 0.0
2018-Aug-07 09:50N 47°34' W 052°42'0 0.9
2018-Aug-07 09:28N 47°34' W 052°42'0 0.0
2018-Aug-07 08:55N 47°34' W 052°42'0 0.0
2018-Aug-07 08:25N 47°34' W 052°42'0 0.0
2018-Aug-07 07:55N 47°34' W 052°42'0 0.0
2018-Aug-07 07:25N 47°34' W 052°42'0 0.0
2018-Aug-07 06:58N 47°34' W 052°42'0 0.0
2018-Aug-07 06:28N 47°34' W 052°42'0 0.0
2018-Aug-07 05:55N 47°34' W 052°42'0 0.0
2018-Aug-07 05:25N 47°34' W 052°42'0 0.0
2018-Aug-07 04:55N 47°34' W 052°42'0 0.0
2018-Aug-07 04:25N 47°34' W 052°42'0 0.0
2018-Aug-07 03:55N 47°34' W 052°42'0 0.0
2018-Aug-07 03:25N 47°34' W 052°42'0 0.0
2018-Aug-07 02:55N 47°34' W 052°42'0 0.0
2018-Aug-07 02:25N 47°34' W 052°42'0 0.0
2018-Aug-07 01:55N 47°34' W 052°42'0 0.0
2018-Aug-07 01:25N 47°34' W 052°42'0 0.0
2018-Aug-07 00:52N 47°34' W 052°42'0 0.0
2018-Aug-07 00:21N 47°34' W 052°42'0 0.0
2018-Aug-06 23:56N 47°34' W 052°42'2 3.3
2018-Aug-06 23:25N 47°34' W 052°39'410.2
2018-Aug-06 22:59N 47°31' W 052°34'  

Dump ship's entire track history